Portada
METAR-TAF:

METAR-TAF

Aeroports :

Pointe-à-Pitre, Guadalupe

latitud: 16-16N, longitud: 061-31W, altitud: 11 m

Observació

L'informe es va fer fa 34 minuts, a les 18:30 UTC
Vent 15 kt del Est/Nord-Est
Temperatura 28°C
Humitat 58%
Pressió 1016 hPa
Visibilitat 10 km o més
Núvols disperses a una alçada de 3800 ft
Núvols disperses a una alçada de 4500 ft

METAR: TFFR 291830Z AUTO 06015KT 9999 SCT038 SCT045 28/19 Q1016 NOSIG

Hora: 15:04 (19:04 UTC)

Pronòstic

L'informe es va fer fa 2 hores i 4 minuts, a les 17:00 UTC
Pronòstic vàlid del 29 a les 18 UTC al 30 a les 18 UTC
Vent 15 kt del Est/Nord-Est
Visibilitat 10 km o més
Núvols disperses a una alçada de 2500 ft
Evolucionant progressivament
l' 30 a les 00 UTC al 30 a les 02 UTC
Vent 3 kt amb direcció variable
Evolucionant progressivament
l' 30 a les 11 UTC al 30 a les 13 UTC
Vent 13 kt del Est/Nord-Est

TAF: TFFR 291700Z 2918/3018 07015KT 9999 SCT025 BECMG 3000/3002 VRB03KT BECMG 3011/3013 07013KT

Observacions i pronòstics meteorològics de més de 4000 aeroports (METAR i TAF).

Les estacions disponibles són els punts grocs i vermells al mapa.

Posi el ratolí al punt desitjat per veure el nom de l'estació.

Feu clic per veure les observacions i els pronòstics meteorològics.

Per canviar el mapa: feu clic els botons verds amb una creu de color negre per apropar; al botó verd amb un guió per allunyar la imatge; o en les fletxes verdes per a mapes adjacents.


METAR-TAF: